sensor_id;sensor_type;location;lat;lon;timestamp;temperature;humidity
69715;HTU21D;56981;53.532;49.398;2023-04-01T00:01:01;4.95;76.60
69715;HTU21D;56981;53.532;49.398;2023-04-01T00:03:29;4.95;76.69
69715;HTU21D;56981;53.532;49.398;2023-04-01T00:05:57;4.95;76.77
69715;HTU21D;56981;53.532;49.398;2023-04-01T00:08:24;4.93;76.86
69715;HTU21D;56981;53.532;49.398;2023-04-01T00:10:52;4.91;76.89
69715;HTU21D;56981;53.532;49.398;2023-04-01T00:13:19;4.89;77.24
69715;HTU21D;56981;53.532;49.398;2023-04-01T00:15:46;4.89;77.21
69715;HTU21D;56981;53.532;49.398;2023-04-01T00:18:12;4.91;77.33
69715;HTU21D;56981;53.532;49.398;2023-04-01T00:20:42;4.90;77.08
69715;HTU21D;56981;53.532;49.398;2023-04-01T00:23:09;4.91;77.24
69715;HTU21D;56981;53.532;49.398;2023-04-01T00:25:35;4.91;76.83
69715;HTU21D;56981;53.532;49.398;2023-04-01T00:28:02;4.89;76.94
69715;HTU21D;56981;53.532;49.398;2023-04-01T00:30:28;4.88;77.06
69715;HTU21D;56981;53.532;49.398;2023-04-01T00:32:54;4.88;76.93
69715;HTU21D;56981;53.532;49.398;2023-04-01T00:35:20;4.87;76.86
69715;HTU21D;56981;53.532;49.398;2023-04-01T00:37:46;4.87;76.80
69715;HTU21D;56981;53.532;49.398;2023-04-01T00:40:43;4.78;77.40
69715;HTU21D;56981;53.532;49.398;2023-04-01T00:43:12;4.77;77.60
69715;HTU21D;56981;53.532;49.398;2023-04-01T00:45:42;4.76;77.95
69715;HTU21D;56981;53.532;49.398;2023-04-01T00:48:20;4.74;77.55
69715;HTU21D;56981;53.532;49.398;2023-04-01T00:50:57;4.73;77.58
69715;HTU21D;56981;53.532;49.398;2023-04-01T00:53:23;4.69;77.62
69715;HTU21D;56981;53.532;49.398;2023-04-01T00:55:55;4.65;77.93
69715;HTU21D;56981;53.532;49.398;2023-04-01T00:58:24;4.64;77.50
69715;HTU21D;56981;53.532;49.398;2023-04-01T01:00:53;4.61;77.67
69715;HTU21D;56981;53.532;49.398;2023-04-01T01:03:20;4.61;78.27
69715;HTU21D;56981;53.532;49.398;2023-04-01T01:06:08;4.56;78.21
69715;HTU21D;56981;53.532;49.398;2023-04-01T01:09:13;4.53;78.30
69715;HTU21D;56981;53.532;49.398;2023-04-01T01:11:43;4.52;78.61
69715;HTU21D;56981;53.532;49.398;2023-04-01T01:14:35;4.48;78.56
69715;HTU21D;56981;53.532;49.398;2023-04-01T01:31:26;4.39;78.50
69715;HTU21D;56981;53.532;49.398;2023-04-01T01:36:59;4.37;78.76
69715;HTU21D;56981;53.532;49.398;2023-04-01T01:39:30;4.35;78.22
69715;HTU21D;56981;53.532;49.398;2023-04-01T01:42:17;4.33;78.40
69715;HTU21D;56981;53.532;49.398;2023-04-01T01:44:45;4.32;77.91
69715;HTU21D;56981;53.532;49.398;2023-04-01T01:47:13;4.29;78.27
69715;HTU21D;56981;53.532;49.398;2023-04-01T01:49:41;4.29;78.37
69715;HTU21D;56981;53.532;49.398;2023-04-01T01:52:08;4.28;78.25
69715;HTU21D;56981;53.532;49.398;2023-04-01T01:54:35;4.27;77.95
69715;HTU21D;56981;53.532;49.398;2023-04-01T01:57:09;4.28;78.38
69715;HTU21D;56981;53.532;49.398;2023-04-01T01:59:38;4.28;78.00
69715;HTU21D;56981;53.532;49.398;2023-04-01T02:02:07;4.27;78.69
69715;HTU21D;56981;53.532;49.398;2023-04-01T02:04:36;4.23;78.54
69715;HTU21D;56981;53.532;49.398;2023-04-01T02:07:10;4.21;78.93
69715;HTU21D;56981;53.532;49.398;2023-04-01T02:09:38;4.20;79.05
69715;HTU21D;56981;53.532;49.398;2023-04-01T02:12:11;4.18;79.30
69715;HTU21D;56981;53.532;49.398;2023-04-01T02:14:43;4.16;79.14
69715;HTU21D;56981;53.532;49.398;2023-04-01T02:17:14;4.09;79.73
69715;HTU21D;56981;53.532;49.398;2023-04-01T02:19:47;4.09;79.49
69715;HTU21D;56981;53.532;49.398;2023-04-01T02:22:20;4.06;79.58
69715;HTU21D;56981;53.532;49.398;2023-04-01T02:24:49;4.05;80.04
69715;HTU21D;56981;53.532;49.398;2023-04-01T02:27:17;4.03;80.17
69715;HTU21D;56981;53.532;49.398;2023-04-01T02:29:44;4.00;80.44
69715;HTU21D;56981;53.532;49.398;2023-04-01T02:32:11;4.03;80.42
69715;HTU21D;56981;53.532;49.398;2023-04-01T02:34:39;4.05;80.48
69715;HTU21D;56981;53.532;49.398;2023-04-01T02:37:05;4.06;80.37
69715;HTU21D;56981;53.532;49.398;2023-04-01T02:39:31;4.09;80.11
69715;HTU21D;56981;53.532;49.398;2023-04-01T02:41:58;4.13;80.04
69715;HTU21D;56981;53.532;49.398;2023-04-01T02:44:24;4.13;80.20
69715;HTU21D;56981;53.532;49.398;2023-04-01T02:46:51;4.15;80.06
69715;HTU21D;56981;53.532;49.398;2023-04-01T02:49:17;4.15;79.73
69715;HTU21D;56981;53.532;49.398;2023-04-01T02:51:43;4.17;79.53
69715;HTU21D;56981;53.532;49.398;2023-04-01T02:54:09;4.21;79.49
69715;HTU21D;56981;53.532;49.398;2023-04-01T02:56:36;4.21;79.35
69715;HTU21D;56981;53.532;49.398;2023-04-01T02:59:02;4.33;78.56
69715;HTU21D;56981;53.532;49.398;2023-04-01T03:01:28;4.39;77.96
69715;HTU21D;56981;53.532;49.398;2023-04-01T03:03:55;4.45;78.05
69715;HTU21D;56981;53.532;49.398;2023-04-01T03:06:21;4.58;77.66
69715;HTU21D;56981;53.532;49.398;2023-04-01T03:08:47;4.75;76.76
69715;HTU21D;56981;53.532;49.398;2023-04-01T03:11:14;5.00;75.69
69715;HTU21D;56981;53.532;49.398;2023-04-01T03:13:40;5.41;73.79
69715;HTU21D;56981;53.532;49.398;2023-04-01T03:16:07;5.60;72.65
69715;HTU21D;56981;53.532;49.398;2023-04-01T03:18:33;5.61;72.24
69715;HTU21D;56981;53.532;49.398;2023-04-01T03:21:31;5.55;72.82
69715;HTU21D;56981;53.532;49.398;2023-04-01T03:23:58;5.54;72.83
69715;HTU21D;56981;53.532;49.398;2023-04-01T03:26:24;5.54;72.72
69715;HTU21D;56981;53.532;49.398;2023-04-01T03:28:53;5.54;72.87
69715;HTU21D;56981;53.532;49.398;2023-04-01T03:31:19;5.60;72.61
69715;HTU21D;56981;53.532;49.398;2023-04-01T03:33:46;5.69;71.97
69715;HTU21D;56981;53.532;49.398;2023-04-01T03:36:12;5.93;70.58
69715;HTU21D;56981;53.532;49.398;2023-04-01T03:38:40;6.65;68.75
69715;HTU21D;56981;53.532;49.398;2023-04-01T03:41:07;7.69;64.39
69715;HTU21D;56981;53.532;49.398;2023-04-01T03:43:33;8.01;62.16
69715;HTU21D;56981;53.532;49.398;2023-04-01T03:45:59;7.94;62.41
69715;HTU21D;56981;53.532;49.398;2023-04-01T03:48:26;7.81;62.66
69715;HTU21D;56981;53.532;49.398;2023-04-01T03:50:52;7.76;62.53
69715;HTU21D;56981;53.532;49.398;2023-04-01T03:53:18;7.77;62.77
69715;HTU21D;56981;53.532;49.398;2023-04-01T03:55:45;7.59;62.70
69715;HTU21D;56981;53.532;49.398;2023-04-01T03:58:12;7.93;61.15
69715;HTU21D;56981;53.532;49.398;2023-04-01T04:00:39;7.78;62.30
69715;HTU21D;56981;53.532;49.398;2023-04-01T04:03:06;7.78;61.86
69715;HTU21D;56981;53.532;49.398;2023-04-01T04:05:32;7.87;61.73
69715;HTU21D;56981;53.532;49.398;2023-04-01T04:07:59;7.96;61.54
69715;HTU21D;56981;53.532;49.398;2023-04-01T04:10:25;8.18;60.45
69715;HTU21D;56981;53.532;49.398;2023-04-01T04:12:52;8.20;60.99
69715;HTU21D;56981;53.532;49.398;2023-04-01T04:15:19;8.57;59.88
69715;HTU21D;56981;53.532;49.398;2023-04-01T04:17:45;9.39;57.03
69715;HTU21D;56981;53.532;49.398;2023-04-01T04:20:12;10.05;54.54
69715;HTU21D;56981;53.532;49.398;2023-04-01T04:22:38;10.04;54.99
69715;HTU21D;56981;53.532;49.398;2023-04-01T04:25:06;10.31;53.43
69715;HTU21D;56981;53.532;49.398;2023-04-01T04:27:32;10.42;53.86
69715;HTU21D;56981;53.532;49.398;2023-04-01T04:29:59;10.89;51.87
69715;HTU21D;56981;53.532;49.398;2023-04-01T04:32:25;11.13;51.01
69715;HTU21D;56981;53.532;49.398;2023-04-01T04:34:51;11.74;49.01
69715;HTU21D;56981;53.532;49.398;2023-04-01T04:37:19;11.81;49.28
69715;HTU21D;56981;53.532;49.398;2023-04-01T04:39:45;12.00;49.07
69715;HTU21D;56981;53.532;49.398;2023-04-01T04:42:11;12.49;47.77
69715;HTU21D;56981;53.532;49.398;2023-04-01T04:44:39;12.96;46.61
69715;HTU21D;56981;53.532;49.398;2023-04-01T04:47:05;12.92;46.69
69715;HTU21D;56981;53.532;49.398;2023-04-01T04:49:32;13.51;43.21
69715;HTU21D;56981;53.532;49.398;2023-04-01T04:51:58;13.88;42.22
69715;HTU21D;56981;53.532;49.398;2023-04-01T04:54:24;13.85;42.72
69715;HTU21D;56981;53.532;49.398;2023-04-01T04:56:54;14.20;41.13
69715;HTU21D;56981;53.532;49.398;2023-04-01T04:59:21;14.28;40.78
69715;HTU21D;56981;53.532;49.398;2023-04-01T05:01:47;14.60;40.65
69715;HTU21D;56981;53.532;49.398;2023-04-01T05:04:13;14.35;40.40
69715;HTU21D;56981;53.532;49.398;2023-04-01T05:06:39;14.18;40.57
69715;HTU21D;56981;53.532;49.398;2023-04-01T05:09:05;14.19;41.00
69715;HTU21D;56981;53.532;49.398;2023-04-01T05:11:31;14.35;40.06
69715;HTU21D;56981;53.532;49.398;2023-04-01T05:13:57;14.64;39.28
69715;HTU21D;56981;53.532;49.398;2023-04-01T05:16:24;14.37;39.68
69715;HTU21D;56981;53.532;49.398;2023-04-01T05:18:50;14.47;40.10
69715;HTU21D;56981;53.532;49.398;2023-04-01T05:21:16;14.67;38.91
69715;HTU21D;56981;53.532;49.398;2023-04-01T05:23:42;14.19;38.62
69715;HTU21D;56981;53.532;49.398;2023-04-01T05:26:12;14.20;35.79
69715;HTU21D;56981;53.532;49.398;2023-04-01T05:28:38;14.18;36.67
69715;HTU21D;56981;53.532;49.398;2023-04-01T05:31:06;14.71;35.18
69715;HTU21D;56981;53.532;49.398;2023-04-01T05:33:33;15.23;36.13
69715;HTU21D;56981;53.532;49.398;2023-04-01T05:36:15;15.58;32.11
69715;HTU21D;56981;53.532;49.398;2023-04-01T05:38:42;15.91;31.80
69715;HTU21D;56981;53.532;49.398;2023-04-01T05:41:09;15.71;32.92
69715;HTU21D;56981;53.532;49.398;2023-04-01T05:43:36;15.25;33.48
69715;HTU21D;56981;53.532;49.398;2023-04-01T05:46:03;15.66;31.52
69715;HTU21D;56981;53.532;49.398;2023-04-01T05:48:29;15.57;32.51
69715;HTU21D;56981;53.532;49.398;2023-04-01T05:50:55;16.06;32.29
69715;HTU21D;56981;53.532;49.398;2023-04-01T05:53:22;16.22;31.54
69715;HTU21D;56981;53.532;49.398;2023-04-01T05:55:48;16.44;30.29
69715;HTU21D;56981;53.532;49.398;2023-04-01T05:58:17;16.36;30.32
69715;HTU21D;56981;53.532;49.398;2023-04-01T06:00:43;16.74;30.44
69715;HTU21D;56981;53.532;49.398;2023-04-01T06:03:09;17.16;29.13
69715;HTU21D;56981;53.532;49.398;2023-04-01T06:05:40;16.59;31.27
69715;HTU21D;56981;53.532;49.398;2023-04-01T06:08:15;16.40;30.93
69715;HTU21D;56981;53.532;49.398;2023-04-01T06:16:44;16.29;31.35
69715;HTU21D;56981;53.532;49.398;2023-04-01T06:30:50;15.58;33.05
69715;HTU21D;56981;53.532;49.398;2023-04-01T06:39:11;16.00;32.70
69715;HTU21D;56981;53.532;49.398;2023-04-01T06:44:33;16.92;31.13
69715;HTU21D;56981;53.532;49.398;2023-04-01T06:49:56;16.86;30.32
69715;HTU21D;56981;53.532;49.398;2023-04-01T06:52:38;17.09;31.04
69715;HTU21D;56981;53.532;49.398;2023-04-01T06:55:42;16.84;31.64
69715;HTU21D;56981;53.532;49.398;2023-04-01T06:58:04;16.54;32.22
69715;HTU21D;56981;53.532;49.398;2023-04-01T07:00:32;16.42;31.96
69715;HTU21D;56981;53.532;49.398;2023-04-01T07:03:32;16.48;33.09
69715;HTU21D;56981;53.532;49.398;2023-04-01T07:08:55;15.77;33.27
69715;HTU21D;56981;53.532;49.398;2023-04-01T07:11:34;15.25;35.08
69715;HTU21D;56981;53.532;49.398;2023-04-01T07:14:06;15.13;34.70
69715;HTU21D;56981;53.532;49.398;2023-04-01T07:16:41;15.01;35.34
69715;HTU21D;56981;53.532;49.398;2023-04-01T07:25:03;14.58;35.58
69715;HTU21D;56981;53.532;49.398;2023-04-01T07:27:33;14.48;36.14
69715;HTU21D;56981;53.532;49.398;2023-04-01T07:30:01;14.51;36.59
69715;HTU21D;56981;53.532;49.398;2023-04-01T07:32:44;14.34;37.40
69715;HTU21D;56981;53.532;49.398;2023-04-01T07:35:21;14.04;36.79
69715;HTU21D;56981;53.532;49.398;2023-04-01T07:45:34;13.37;38.46
69715;HTU21D;56981;53.532;49.398;2023-04-01T07:56:55;13.73;38.35
69715;HTU21D;56981;53.532;49.398;2023-04-01T07:59:30;13.78;38.10
69715;HTU21D;56981;53.532;49.398;2023-04-01T08:16:09;15.44;36.34
69715;HTU21D;56981;53.532;49.398;2023-04-01T08:18:39;15.37;35.49
69715;HTU21D;56981;53.532;49.398;2023-04-01T08:21:14;15.52;34.89
69715;HTU21D;56981;53.532;49.398;2023-04-01T08:23:47;15.25;34.58
69715;HTU21D;56981;53.532;49.398;2023-04-01T08:26:32;15.13;35.66
69715;HTU21D;56981;53.532;49.398;2023-04-01T08:29:10;15.13;35.55
69715;HTU21D;56981;53.532;49.398;2023-04-01T08:31:58;15.52;36.01
69715;HTU21D;56981;53.532;49.398;2023-04-01T08:34:30;15.33;34.86
69715;HTU21D;56981;53.532;49.398;2023-04-01T08:37:09;15.19;36.72
69715;HTU21D;56981;53.532;49.398;2023-04-01T08:39:40;14.88;36.51
69715;HTU21D;56981;53.532;49.398;2023-04-01T08:56:33;13.90;38.85
69715;HTU21D;56981;53.532;49.398;2023-04-01T09:15:47;13.37;39.49
69715;HTU21D;56981;53.532;49.398;2023-04-01T09:21:50;13.48;38.43
69715;HTU21D;56981;53.532;49.398;2023-04-01T09:27:29;13.62;37.27
69715;HTU21D;56981;53.532;49.398;2023-04-01T09:32:58;13.78;37.19
69715;HTU21D;56981;53.532;49.398;2023-04-01T09:36:07;13.77;38.14
69715;HTU21D;56981;53.532;49.398;2023-04-01T09:38:57;13.90;37.20
69715;HTU21D;56981;53.532;49.398;2023-04-01T09:44:46;13.58;36.80
69715;HTU21D;56981;53.532;49.398;2023-04-01T09:47:55;13.47;38.01
69715;HTU21D;56981;53.532;49.398;2023-04-01T09:53:28;13.54;36.59
69715;HTU21D;56981;53.532;49.398;2023-04-01T10:07:51;13.59;38.80
69715;HTU21D;56981;53.532;49.398;2023-04-01T10:12:56;13.71;36.71
69715;HTU21D;56981;53.532;49.398;2023-04-01T10:35:40;14.06;36.18
69715;HTU21D;56981;53.532;49.398;2023-04-01T10:41:15;13.80;36.79
69715;HTU21D;56981;53.532;49.398;2023-04-01T10:44:27;13.67;37.92
69715;HTU21D;56981;53.532;49.398;2023-04-01T11:04:30;14.17;37.59
69715;HTU21D;56981;53.532;49.398;2023-04-01T11:32:53;13.68;35.95
69715;HTU21D;56981;53.532;49.398;2023-04-01T11:35:35;13.66;35.80
69715;HTU21D;56981;53.532;49.398;2023-04-01T11:39:14;13.65;37.63
69715;HTU21D;56981;53.532;49.398;2023-04-01T11:41:43;13.90;38.00
69715;HTU21D;56981;53.532;49.398;2023-04-01T11:44:16;14.00;37.32
69715;HTU21D;56981;53.532;49.398;2023-04-01T11:52:15;13.62;38.82
69715;HTU21D;56981;53.532;49.398;2023-04-01T11:54:54;13.61;38.53
69715;HTU21D;56981;53.532;49.398;2023-04-01T12:06:14;13.48;40.37
69715;HTU21D;56981;53.532;49.398;2023-04-01T12:08:47;13.32;39.81
69715;HTU21D;56981;53.532;49.398;2023-04-01T12:11:35;13.44;39.97
69715;HTU21D;56981;53.532;49.398;2023-04-01T12:14:14;13.52;40.06
69715;HTU21D;56981;53.532;49.398;2023-04-01T12:16:48;13.38;39.51
69715;HTU21D;56981;53.532;49.398;2023-04-01T12:19:27;13.37;39.81
69715;HTU21D;56981;53.532;49.398;2023-04-01T12:24:50;13.37;40.07
69715;HTU21D;56981;53.532;49.398;2023-04-01T12:35:27;13.21;40.54
69715;HTU21D;56981;53.532;49.398;2023-04-01T12:43:41;13.07;41.52
69715;HTU21D;56981;53.532;49.398;2023-04-01T13:00:31;13.01;41.11
69715;HTU21D;56981;53.532;49.398;2023-04-01T13:11:40;12.66;42.23
69715;HTU21D;56981;53.532;49.398;2023-04-01T13:19:39;12.62;42.77
69715;HTU21D;56981;53.532;49.398;2023-04-01T13:28:07;12.60;42.24
69715;HTU21D;56981;53.532;49.398;2023-04-01T13:30:53;12.66;42.50
69715;HTU21D;56981;53.532;49.398;2023-04-01T13:36:09;12.45;43.13
69715;HTU21D;56981;53.532;49.398;2023-04-01T13:44:24;12.21;43.41
69715;HTU21D;56981;53.532;49.398;2023-04-01T13:49:53;12.16;43.35
69715;HTU21D;56981;53.532;49.398;2023-04-01T13:54:58;12.05;43.42
69715;HTU21D;56981;53.532;49.398;2023-04-01T14:07:21;11.90;43.97
69715;HTU21D;56981;53.532;49.398;2023-04-01T14:09:44;11.84;44.55
69715;HTU21D;56981;53.532;49.398;2023-04-01T14:17:35;11.79;45.11
69715;HTU21D;56981;53.532;49.398;2023-04-01T14:34:36;11.46;44.90
69715;HTU21D;56981;53.532;49.398;2023-04-01T14:40:00;11.39;45.53
69715;HTU21D;56981;53.532;49.398;2023-04-01T14:50:51;11.08;46.40
69715;HTU21D;56981;53.532;49.398;2023-04-01T14:53:26;11.01;46.49
69715;HTU21D;56981;53.532;49.398;2023-04-01T14:55:58;10.94;46.77
69715;HTU21D;56981;53.532;49.398;2023-04-01T14:58:44;10.90;47.22
69715;HTU21D;56981;53.532;49.398;2023-04-01T15:04:05;10.89;47.09
69715;HTU21D;56981;53.532;49.398;2023-04-01T15:09:39;10.74;47.28
69715;HTU21D;56981;53.532;49.398;2023-04-01T15:23:43;10.50;48.21
69715;HTU21D;56981;53.532;49.398;2023-04-01T15:38:18;10.27;50.30
69715;HTU21D;56981;53.532;49.398;2023-04-01T15:43:49;10.22;49.62
69715;HTU21D;56981;53.532;49.398;2023-04-01T15:49:04;10.18;50.14
69715;HTU21D;56981;53.532;49.398;2023-04-01T15:59:47;10.12;50.17
69715;HTU21D;56981;53.532;49.398;2023-04-01T16:02:48;10.13;50.11
69715;HTU21D;56981;53.532;49.398;2023-04-01T16:11:50;9.98;50.40
69715;HTU21D;56981;53.532;49.398;2023-04-01T16:17:21;9.92;51.41
69715;HTU21D;56981;53.532;49.398;2023-04-01T16:19:59;9.92;52.46
69715;HTU21D;56981;53.532;49.398;2023-04-01T16:22:39;9.89;51.49
69715;HTU21D;56981;53.532;49.398;2023-04-01T16:28:15;9.89;50.86
69715;HTU21D;56981;53.532;49.398;2023-04-01T16:36:48;9.85;52.36
69715;HTU21D;56981;53.532;49.398;2023-04-01T16:42:40;9.75;51.31
69715;HTU21D;56981;53.532;49.398;2023-04-01T16:47:40;9.57;51.70
69715;HTU21D;56981;53.532;49.398;2023-04-01T16:53:17;9.50;52.56
69715;HTU21D;56981;53.532;49.398;2023-04-01T16:58:27;9.50;52.21
69715;HTU21D;56981;53.532;49.398;2023-04-01T17:01:01;9.50;52.24
69715;HTU21D;56981;53.532;49.398;2023-04-01T17:03:44;9.48;53.31
69715;HTU21D;56981;53.532;49.398;2023-04-01T17:06:23;9.40;53.29
69715;HTU21D;56981;53.532;49.398;2023-04-01T17:25:37;9.29;56.29
69715;HTU21D;56981;53.532;49.398;2023-04-01T17:31:10;9.27;56.16
69715;HTU21D;56981;53.532;49.398;2023-04-01T17:41:51;9.32;56.88
69715;HTU21D;56981;53.532;49.398;2023-04-01T17:44:34;9.31;56.03
69715;HTU21D;56981;53.532;49.398;2023-04-01T17:52:39;9.33;56.04
69715;HTU21D;56981;53.532;49.398;2023-04-01T18:06:45;9.22;56.42
69715;HTU21D;56981;53.532;49.398;2023-04-01T18:17:18;9.11;57.21
69715;HTU21D;56981;53.532;49.398;2023-04-01T18:20:11;9.08;57.47
69715;HTU21D;56981;53.532;49.398;2023-04-01T18:25:40;9.06;58.09
69715;HTU21D;56981;53.532;49.398;2023-04-01T18:31:07;9.02;57.93
69715;HTU21D;56981;53.532;49.398;2023-04-01T18:39:02;8.96;58.77
69715;HTU21D;56981;53.532;49.398;2023-04-01T18:41:40;8.97;58.59
69715;HTU21D;56981;53.532;49.398;2023-04-01T18:44:51;9.01;58.74
69715;HTU21D;56981;53.532;49.398;2023-04-01T18:47:15;8.96;58.84
69715;HTU21D;56981;53.532;49.398;2023-04-01T18:52:41;8.96;59.60
69715;HTU21D;56981;53.532;49.398;2023-04-01T18:55:28;8.97;59.79
69715;HTU21D;56981;53.532;49.398;2023-04-01T18:58:06;8.94;59.78
69715;HTU21D;56981;53.532;49.398;2023-04-01T19:00:41;8.97;59.73
69715;HTU21D;56981;53.532;49.398;2023-04-01T19:06:01;8.89;59.55
69715;HTU21D;56981;53.532;49.398;2023-04-01T19:08:35;8.89;59.82
69715;HTU21D;56981;53.532;49.398;2023-04-01T19:14:17;8.86;60.35
69715;HTU21D;56981;53.532;49.398;2023-04-01T19:17:06;8.88;59.76
69715;HTU21D;56981;53.532;49.398;2023-04-01T19:20:06;8.82;60.80
69715;HTU21D;56981;53.532;49.398;2023-04-01T19:27:55;8.74;60.31
69715;HTU21D;56981;53.532;49.398;2023-04-01T19:30:42;8.75;60.22
69715;HTU21D;56981;53.532;49.398;2023-04-01T19:36:01;8.70;60.67
69715;HTU21D;56981;53.532;49.398;2023-04-01T19:50:16;8.55;61.04
69715;HTU21D;56981;53.532;49.398;2023-04-01T19:52:49;8.52;61.47
69715;HTU21D;56981;53.532;49.398;2023-04-01T19:55:36;8.51;61.44
69715;HTU21D;56981;53.532;49.398;2023-04-01T19:58:24;8.47;61.51
69715;HTU21D;56981;53.532;49.398;2023-04-01T20:00:53;8.44;60.86
69715;HTU21D;56981;53.532;49.398;2023-04-01T20:03:45;8.42;61.73
69715;HTU21D;56981;53.532;49.398;2023-04-01T20:12:15;8.38;61.51
69715;HTU21D;56981;53.532;49.398;2023-04-01T20:14:54;8.38;60.64
69715;HTU21D;56981;53.532;49.398;2023-04-01T20:36:39;8.32;59.16
69715;HTU21D;56981;53.532;49.398;2023-04-01T20:45:17;8.27;57.90
69715;HTU21D;56981;53.532;49.398;2023-04-01T20:51:05;8.20;57.89
69715;HTU21D;56981;53.532;49.398;2023-04-01T20:57:00;8.24;56.45
69715;HTU21D;56981;53.532;49.398;2023-04-01T21:02:48;8.21;57.02
69715;HTU21D;56981;53.532;49.398;2023-04-01T21:11:13;8.27;54.18
69715;HTU21D;56981;53.532;49.398;2023-04-01T21:22:51;8.29;54.43
69715;HTU21D;56981;53.532;49.398;2023-04-01T21:28:03;8.29;54.70
69715;HTU21D;56981;53.532;49.398;2023-04-01T21:33:49;8.21;54.49
69715;HTU21D;56981;53.532;49.398;2023-04-01T21:36:40;8.20;54.29
69715;HTU21D;56981;53.532;49.398;2023-04-01T21:39:26;8.16;55.21
69715;HTU21D;56981;53.532;49.398;2023-04-01T21:50:47;8.19;54.37
69715;HTU21D;56981;53.532;49.398;2023-04-01T22:04:38;8.27;54.62
69715;HTU21D;56981;53.532;49.398;2023-04-01T22:12:17;8.23;54.59
69715;HTU21D;56981;53.532;49.398;2023-04-01T22:15:18;8.24;54.13
69715;HTU21D;56981;53.532;49.398;2023-04-01T22:18:08;8.23;54.43
69715;HTU21D;56981;53.532;49.398;2023-04-01T22:20:56;8.24;54.35
69715;HTU21D;56981;53.532;49.398;2023-04-01T22:23:55;8.24;55.19
69715;HTU21D;56981;53.532;49.398;2023-04-01T22:34:55;8.23;55.08
69715;HTU21D;56981;53.532;49.398;2023-04-01T22:37:29;8.26;54.92
69715;HTU21D;56981;53.532;49.398;2023-04-01T22:40:07;8.26;54.78
69715;HTU21D;56981;53.532;49.398;2023-04-01T22:42:44;8.26;55.42
69715;HTU21D;56981;53.532;49.398;2023-04-01T22:45:29;8.24;55.64
69715;HTU21D;56981;53.532;49.398;2023-04-01T22:56:12;8.32;55.36
69715;HTU21D;56981;53.532;49.398;2023-04-01T22:58:46;8.32;55.43
69715;HTU21D;56981;53.532;49.398;2023-04-01T23:01:24;8.30;55.41
69715;HTU21D;56981;53.532;49.398;2023-04-01T23:03:52;8.29;55.50
69715;HTU21D;56981;53.532;49.398;2023-04-01T23:06:37;8.31;55.97
69715;HTU21D;56981;53.532;49.398;2023-04-01T23:14:43;8.28;55.62
69715;HTU21D;56981;53.532;49.398;2023-04-01T23:20:29;8.35;55.58
69715;HTU21D;56981;53.532;49.398;2023-04-01T23:30:51;8.21;56.83
69715;HTU21D;56981;53.532;49.398;2023-04-01T23:35:48;8.22;56.23
69715;HTU21D;56981;53.532;49.398;2023-04-01T23:38:15;8.20;56.53
69715;HTU21D;56981;53.532;49.398;2023-04-01T23:40:42;8.18;56.27
69715;HTU21D;56981;53.532;49.398;2023-04-01T23:43:25;8.16;56.39
69715;HTU21D;56981;53.532;49.398;2023-04-01T23:45:55;8.11;56.62
69715;HTU21D;56981;53.532;49.398;2023-04-01T23:48:28;8.09;56.35
69715;HTU21D;56981;53.532;49.398;2023-04-01T23:50:56;8.09;56.34
69715;HTU21D;56981;53.532;49.398;2023-04-01T23:53:25;8.13;56.39
69715;HTU21D;56981;53.532;49.398;2023-04-01T23:55:54;8.16;56.39
